PORTS® Data Listing: 9410660 Los Angeles, CA

CO-OPS RAW PORTS DATA

************************      PRELIMINARY DATA      ************************** 

     THIS RAW DATA HAS NOT BEEN SUBJECT TO THE NATIONAL OCEAN SERVICE'S        
     QUALITY CONTROL OR QUALITY ASSURANCE PROCEDURES AND DOES NOT MEET         
     THE CRITERIA AND STANDARDS OF OFFICIAL NATIONAL OCEAN SERVICE             
     DATA.  IT IS RELEASED FOR LIMITED PUBLIC USE AS PRELIMINARY DATA TO       
     BE USED ONLY WITH APPROPRIATE CAUTION.                                    

************************      PRELIMINARY DATA      ************************** 


       CD   -   Calendar date
       T    -   Time
       TZ   -   Timezone
       PW   -   Predicted water level (feet above MLLW)
       OW   -   Observed water level (feet above MLLW)
       WS   -   Wind speed (knots)
       WD   -   Wind direction (degrees true)
       WG   -   Wind gust (knots)
       AT   -   Air temperature (degrees farenheit)
       WT   -   Water temperature (degrees farenheit)
       AP   -   Air pressure (millibars)
       SA   -   Salinty (PSU - Practical Salinity Units)
       SG   -   Specific gravity
       RH   -   Relative humidity
       AG   -   Air gap (feet)
       VI   -   Visibility (nautical miles)

       ** NOTE **
       A variable that has its data fields filled with "9"s, indicates that
       data was not collected for that sample period.
       **********


STATION NAME: Los Angeles (9410660)
****************************************************************************************************
    CD       T    TZ    PW     OW    WS   WD   WG    AT    WT    AP    SA    SG     RH    AG   VI
****************************************************************************************************
2020/01/28 18:42 PST    0.41   0.79 -999 -999 -999 -99.9  61.5 1018.3 -9.9 -9.999 -99.9 -99.99 -9.99
2020/01/28 18:48 PST    0.46   0.81 -999 -999 -999 -99.9  61.3 1018.4 -9.9 -9.999 -99.9 -99.99 -9.99
2020/01/28 18:54 PST    0.52   0.86 -999 -999 -999 -99.9  61.3 1018.3 -9.9 -9.999 -99.9 -99.99 -9.99
2020/01/28 19:00 PST    0.58   0.88 -999 -999 -999 -99.9  61.3 1018.4 -9.9 -9.999 -99.9 -99.99 -9.99
2020/01/28 19:06 PST    0.64   1.00 -999 -999 -999 -99.9  61.3 1018.3 -9.9 -9.999 -99.9 -99.99 -9.99
2020/01/28 19:12 PST    0.70   1.08 -999 -999 -999 -99.9  61.3 1018.2 -9.9 -9.999 -99.9 -99.99 -9.99
2020/01/28 19:18 PST    0.77   1.16 -999 -999 -999 -99.9  61.3 1018.1 -9.9 -9.999 -99.9 -99.99 -9.99
2020/01/28 19:24 PST    0.84   1.26 -999 -999 -999 -99.9  61.3 1018.0 -9.9 -9.999 -99.9 -99.99 -9.99
2020/01/28 19:30 PST    0.92   1.38 -999 -999 -999 -99.9  61.3 1018.1 -9.9 -9.999 -99.9 -99.99 -9.99
2020/01/28 19:36 PST    1.00   1.40 -999 -999 -999 -99.9  61.3 1018.1 -9.9 -9.999 -99.9 -99.99 -9.99
2020/01/28 19:42 PST    1.08   1.45 -999 -999 -999 -99.9  61.3 1017.9 -9.9 -9.999 -99.9 -99.99 -9.99
2020/01/28 19:48 PST    1.16   1.48 -999 -999 -999 -99.9  61.3 1017.8 -9.9 -9.999 -99.9 -99.99 -9.99
2020/01/28 19:54 PST    1.24   1.52 -999 -999 -999 -99.9  61.3 1017.8 -9.9 -9.999 -99.9 -99.99 -9.99
2020/01/28 20:00 PST    1.33   1.64 -999 -999 -999 -99.9  61.3 1017.8 -9.9 -9.999 -99.9 -99.99 -9.99
2020/01/28 20:06 PST    1.41   1.73 -999 -999 -999 -99.9  61.3 1017.8 -9.9 -9.999 -99.9 -99.99 -9.99
2020/01/28 20:12 PST    1.50   1.89 -999 -999 -999 -99.9  61.3 1017.9 -9.9 -9.999 -99.9 -99.99 -9.99
2020/01/28 20:18 PST    1.59   1.98 -999 -999 -999 -99.9  61.3 1018.0 -9.9 -9.999 -99.9 -99.99 -9.99
2020/01/28 20:24 PST    1.68   2.06 -999 -999 -999 -99.9  61.3 1017.9 -9.9 -9.999 -99.9 -99.99 -9.99
2020/01/28 20:30 PST    1.77   2.14 -999 -999 -999 -99.9  61.3 1017.8 -9.9 -9.999 -99.9 -99.99 -9.99
2020/01/28 20:36 PST    1.87   2.26 -999 -999 -999 -99.9  61.3 1017.6 -9.9 -9.999 -99.9 -99.99 -9.99
2020/01/28 20:42 PST    1.96   2.34 -999 -999 -999 -99.9  61.3 1017.6 -9.9 -9.999 -99.9 -99.99 -9.99
2020/01/28 20:48 PST    2.05   2.46 -999 -999 -999 -99.9  61.3 1017.5 -9.9 -9.999 -99.9 -99.99 -9.99
2020/01/28 20:54 PST    2.14   2.52 -999 -999 -999 -99.9  61.3 1017.5 -9.9 -9.999 -99.9 -99.99 -9.99
2020/01/28 21:00 PST    2.23   2.59 -999 -999 -999 -99.9  61.3 1017.4 -9.9 -9.999 -99.9 -99.99 -9.99
2020/01/28 21:06 PST    2.32   2.70 -999 -999 -999 -99.9  61.3 1017.3 -9.9 -9.999 -99.9 -99.99 -9.99
2020/01/28 21:12 PST    2.41   2.84 -999 -999 -999 -99.9  61.2 1017.4 -9.9 -9.999 -99.9 -99.99 -9.99
2020/01/28 21:18 PST    2.50   2.92 -999 -999 -999 -99.9  61.2 1017.5 -9.9 -9.999 -99.9 -99.99 -9.99
2020/01/28 21:24 PST    2.59   2.97 -999 -999 -999 -99.9  61.2 1017.6 -9.9 -9.999 -99.9 -99.99 -9.99
2020/01/28 21:30 PST    2.68   3.04 -999 -999 -999 -99.9  61.2 1017.8 -9.9 -9.999 -99.9 -99.99 -9.99
2020/01/28 21:36 PST    2.76   3.12 -999 -999 -999 -99.9  61.2 1017.8 -9.9 -9.999 -99.9 -99.99 -9.99
2020/01/28 21:42 PST    2.85   3.22 -999 -999 -999 -99.9  61.2 1017.8 -9.9 -9.999 -99.9 -99.99 -9.99
2020/01/28 21:48 PST    2.93   3.31 -999 -999 -999 -99.9  61.2 1017.9 -9.9 -9.999 -99.9 -99.99 -9.99
2020/01/28 21:54 PST    3.01   3.40 -999 -999 -999 -99.9  61.2 1017.9 -9.9 -9.999 -99.9 -99.99 -9.99
2020/01/28 22:00 PST    3.08   3.48 -999 -999 -999 -99.9  61.2 1017.9 -9.9 -9.999 -99.9 -99.99 -9.99
2020/01/28 22:06 PST    3.16   3.55 -999 -999 -999 -99.9  61.2 1017.9 -9.9 -9.999 -99.9 -99.99 -9.99
2020/01/28 22:12 PST    3.23   3.62 -999 -999 -999 -99.9  61.2 1017.7 -9.9 -9.999 -99.9 -99.99 -9.99
2020/01/28 22:18 PST    3.30   3.69 -999 -999 -999 -99.9  61.2 1017.5 -9.9 -9.999 -99.9 -99.99 -9.99
2020/01/28 22:24 PST    3.37   3.71 -999 -999 -999 -99.9  61.2 1017.5 -9.9 -9.999 -99.9 -99.99 -9.99
2020/01/28 22:30 PST    3.43   3.74 -999 -999 -999 -99.9  61.2 1017.6 -9.9 -9.999 -99.9 -99.99 -9.99
2020/01/28 22:36 PST    3.49   3.82 -999 -999 -999 -99.9  61.2 1017.5 -9.9 -9.999 -99.9 -99.99 -9.99
2020/01/28 22:42 PST    3.55   3.91 -999 -999 -999 -99.9  61.2 1017.6 -9.9 -9.999 -99.9 -99.99 -9.99
2020/01/28 22:48 PST    3.60   3.98 -999 -999 -999 -99.9  61.2 1017.7 -9.9 -9.999 -99.9 -99.99 -9.99
2020/01/28 22:54 PST    3.65   4.00 -999 -999 -999 -99.9  61.2 1017.7 -9.9 -9.999 -99.9 -99.99 -9.99
2020/01/28 23:00 PST    3.70   4.05 -999 -999 -999 -99.9  61.2 1017.7 -9.9 -9.999 -99.9 -99.99 -9.99
2020/01/28 23:06 PST    3.74   4.12 -999 -999 -999 -99.9  61.2 1017.7 -9.9 -9.999 -99.9 -99.99 -9.99
2020/01/28 23:12 PST    3.78   4.16 -999 -999 -999 -99.9  61.2 1017.5 -9.9 -9.999 -99.9 -99.99 -9.99
2020/01/28 23:18 PST    3.81   4.15 -999 -999 -999 -99.9  61.2 1017.6 -9.9 -9.999 -99.9 -99.99 -9.99
2020/01/28 23:24 PST    3.84   4.18 -999 -999 -999 -99.9  61.2 1017.6 -9.9 -9.999 -99.9 -99.99 -9.99
2020/01/28 23:30 PST    3.87   4.22 -999 -999 -999 -99.9  61.2 1017.3 -9.9 -9.999 -99.9 -99.99 -9.99
2020/01/28 23:36 PST    3.89   4.28 -999 -999 -999 -99.9  61.2 1017.3 -9.9 -9.999 -99.9 -99.99 -9.99
2020/01/28 23:42 PST    3.91   4.32 -999 -999 -999 -99.9  61.2 1017.3 -9.9 -9.999 -99.9 -99.99 -9.99
2020/01/28 23:48 PST    3.93   4.31 -999 -999 -999 -99.9  61.2 1017.2 -9.9 -9.999 -99.9 -99.99 -9.99
2020/01/28 23:54 PST    3.94   4.34 -999 -999 -999 -99.9  61.2 1017.0 -9.9 -9.999 -99.9 -99.99 -9.99
2020/01/29 00:00 PST    3.95   4.33 -999 -999 -999 -99.9  61.2 1016.8 -9.9 -9.999 -99.9 -99.99 -9.99
2020/01/29 00:06 PST    3.96   4.36 -999 -999 -999 -99.9  61.2 1016.8 -9.9 -9.999 -99.9 -99.99 -9.99
2020/01/29 00:12 PST    3.96   4.34 -999 -999 -999 -99.9  61.2 1017.0 -9.9 -9.999 -99.9 -99.99 -9.99
2020/01/29 00:18 PST    3.96   4.35 -999 -999 -999 -99.9  61.2 1016.8 -9.9 -9.999 -99.9 -99.99 -9.99
2020/01/29 00:24 PST    3.95   4.36 -999 -999 -999 -99.9  61.2 1016.8 -9.9 -9.999 -99.9 -99.99 -9.99
2020/01/29 00:30 PST    3.94   4.40 -999 -999 -999 -99.9  61.2 1016.6 -9.9 -9.999 -99.9 -99.99 -9.99
2020/01/29 00:36 PST    3.93   4.37 -999 -999 -999 -99.9  61.2 1016.8 -9.9 -9.999 -99.9 -99.99 -9.99
2020/01/29 00:42 PST    3.91   4.28 -999 -999 -999 -99.9  61.2 1017.0 -9.9 -9.999 -99.9 -99.99 -9.99
2020/01/29 00:48 PST    3.89   4.23 -999 -999 -999 -99.9  61.2 1016.8 -9.9 -9.999 -99.9 -99.99 -9.99
2020/01/29 00:54 PST    3.87   4.18 -999 -999 -999 -99.9  61.2 1017.0 -9.9 -9.999 -99.9 -99.99 -9.99
2020/01/29 01:00 PST    3.84   4.18 -999 -999 -999 -99.9  61.2 1017.2 -9.9 -9.999 -99.9 -99.99 -9.99
2020/01/29 01:06 PST    3.81   4.15 -999 -999 -999 -99.9  61.2 1017.2 -9.9 -9.999 -99.9 -99.99 -9.99
2020/01/29 01:12 PST    3.78   4.14 -999 -999 -999 -99.9  61.2 1017.2 -9.9 -9.999 -99.9 -99.99 -9.99
2020/01/29 01:18 PST    3.75   4.10 -999 -999 -999 -99.9  61.2 1017.0 -9.9 -9.999 -99.9 -99.99 -9.99
2020/01/29 01:24 PST    3.71   4.09 -999 -999 -999 -99.9  61.2 1017.2 -9.9 -9.999 -99.9 -99.99 -9.99
2020/01/29 01:30 PST    3.67   4.09 -999 -999 -999 -99.9  61.2 1017.2 -9.9 -9.999 -99.9 -99.99 -9.99
2020/01/29 01:36 PST    3.63   4.05 -999 -999 -999 -99.9  61.2 1017.2 -9.9 -9.999 -99.9 -99.99 -9.99
2020/01/29 01:42 PST    3.59   3.93 -999 -999 -999 -99.9  61.2 1017.1 -9.9 -9.999 -99.9 -99.99 -9.99
2020/01/29 01:48 PST    3.54   3.80 -999 -999 -999 -99.9  61.2 1017.1 -9.9 -9.999 -99.9 -99.99 -9.99
2020/01/29 01:54 PST    3.49   3.82 -999 -999 -999 -99.9  61.2 1017.1 -9.9 -9.999 -99.9 -99.99 -9.99
2020/01/29 02:00 PST    3.45   3.81 -999 -999 -999 -99.9  61.2 1017.1 -9.9 -9.999 -99.9 -99.99 -9.99
2020/01/29 02:06 PST    3.40   3.77 -999 -999 -999 -99.9  61.2 1017.1 -9.9 -9.999 -99.9 -99.99 -9.99
2020/01/29 02:12 PST    3.34   3.72 -999 -999 -999 -99.9  61.2 1017.0 -9.9 -9.999 -99.9 -99.99 -9.99
2020/01/29 02:18 PST    3.29   3.67 -999 -999 -999 -99.9  61.2 1017.0 -9.9 -9.999 -99.9 -99.99 -9.99
2020/01/29 02:24 PST    3.24   3.65 -999 -999 -999 -99.9  61.2 1016.8 -9.9 -9.999 -99.9 -99.99 -9.99
2020/01/29 02:30 PST    3.19   3.62 -999 -999 -999 -99.9  61.2 1016.9 -9.9 -9.999 -99.9 -99.99 -9.99
2020/01/29 02:36 PST    3.13   3.59 -999 -999 -999 -99.9  61.2 1016.9 -9.9 -9.999 -99.9 -99.99 -9.99
2020/01/29 02:42 PST    3.08   3.47 -999 -999 -999 -99.9  61.2 1016.9 -9.9 -9.999 -99.9 -99.99 -9.99
2020/01/29 02:48 PST    3.02   3.35 -999 -999 -999 -99.9  61.2 1017.0 -9.9 -9.999 -99.9 -99.99 -9.99
2020/01/29 02:54 PST    2.97   3.31 -999 -999 -999 -99.9  61.2 1017.0 -9.9 -9.999 -99.9 -99.99 -9.99
2020/01/29 03:00 PST    2.92   3.26 -999 -999 -999 -99.9  61.2 1016.9 -9.9 -9.999 -99.9 -99.99 -9.99
2020/01/29 03:06 PST    2.86   3.22 -999 -999 -999 -99.9  61.2 1016.8 -9.9 -9.999 -99.9 -99.99 -9.99
2020/01/29 03:12 PST    2.81   3.16 -999 -999 -999 -99.9  61.2 1016.7 -9.9 -9.999 -99.9 -99.99 -9.99
2020/01/29 03:18 PST    2.76   3.14 -999 -999 -999 -99.9  61.2 1016.6 -9.9 -9.999 -99.9 -99.99 -9.99
2020/01/29 03:24 PST    2.71   3.14 -999 -999 -999 -99.9  61.2 1016.6 -9.9 -9.999 -99.9 -99.99 -9.99
2020/01/29 03:30 PST    2.66   3.15 -999 -999 -999 -99.9  61.2 1016.6 -9.9 -9.999 -99.9 -99.99 -9.99
2020/01/29 03:36 PST    2.61   3.11 -999 -999 -999 -99.9  61.2 1016.5 -9.9 -9.999 -99.9 -99.99 -9.99
2020/01/29 03:42 PST    2.57   3.04 -999 -999 -999 -99.9  61.2 1016.4 -9.9 -9.999 -99.9 -99.99 -9.99
2020/01/29 03:48 PST    2.52   2.94 -999 -999 -999 -99.9  61.2 1016.5 -9.9 -9.999 -99.9 -99.99 -9.99
2020/01/29 03:54 PST    2.48   2.84 -999 -999 -999 -99.9  61.2 1016.6 -9.9 -9.999 -99.9 -99.99 -9.99
2020/01/29 04:00 PST    2.44   2.79 -999 -999 -999 -99.9  61.2 1016.6 -9.9 -9.999 -99.9 -99.99 -9.99
2020/01/29 04:06 PST    2.40   2.76 -999 -999 -999 -99.9  61.2 1016.7 -9.9 -9.999 -99.9 -99.99 -9.99
2020/01/29 04:12 PST    2.36   2.75 -999 -999 -999 -99.9  61.2 1016.7 -9.9 -9.999 -99.9 -99.99 -9.99
2020/01/29 04:18 PST    2.33   2.67 -999 -999 -999 -99.9  61.2 1016.6 -9.9 -9.999 -99.9 -99.99 -9.99
2020/01/29 04:24 PST    2.29   2.71 -999 -999 -999 -99.9  61.2 1016.5 -9.9 -9.999 -99.9 -99.99 -9.99
2020/01/29 04:30 PST    2.26   2.76 -999 -999 -999 -99.9  61.2 1016.5 -9.9 -9.999 -99.9 -99.99 -9.99
2020/01/29 04:36 PST    2.24   2.72 -999 -999 -999 -99.9  61.2 1016.6 -9.9 -9.999 -99.9 -99.99 -9.99
2020/01/29 04:42 PST    2.21   2.57 -999 -999 -999 -99.9  61.2 1016.6 -9.9 -9.999 -99.9 -99.99 -9.99
2020/01/29 04:48 PST    2.19   2.53 -999 -999 -999 -99.9  61.2 1016.6 -9.9 -9.999 -99.9 -99.99 -9.99
2020/01/29 04:54 PST    2.17   2.50 -999 -999 -999 -99.9  61.2 1016.5 -9.9 -9.999 -99.9 -99.99 -9.99
2020/01/29 05:00 PST    2.16   2.51 -999 -999 -999 -99.9  61.2 1016.4 -9.9 -9.999 -99.9 -99.99 -9.99
2020/01/29 05:06 PST    2.14   2.58 -999 -999 -999 -99.9  61.2 1016.4 -9.9 -9.999 -99.9 -99.99 -9.99
2020/01/29 05:12 PST    2.14   2.58 -999 -999 -999 -99.9  61.2 1016.5 -9.9 -9.999 -99.9 -99.99 -9.99
2020/01/29 05:18 PST    2.13   2.56 -999 -999 -999 -99.9  61.2 1016.6 -9.9 -9.999 -99.9 -99.99 -9.99
2020/01/29 05:24 PST    2.13   2.55 -999 -999 -999 -99.9  61.2 1016.6 -9.9 -9.999 -99.9 -99.99 -9.99
2020/01/29 05:30 PST    2.13   2.60 -999 -999 -999 -99.9  61.2 1016.5 -9.9 -9.999 -99.9 -99.99 -9.99
2020/01/29 05:36 PST    2.13   2.60 -999 -999 -999 -99.9  61.2 1016.6 -9.9 -9.999 -99.9 -99.99 -9.99
2020/01/29 05:42 PST    2.13   2.56 -999 -999 -999 -99.9  61.2 1016.5 -9.9 -9.999 -99.9 -99.99 -9.99
2020/01/29 05:48 PST    2.14   2.52 -999 -999 -999 -99.9  61.2 1016.4 -9.9 -9.999 -99.9 -99.99 -9.99
2020/01/29 05:54 PST    2.16   2.58 -999 -999 -999 -99.9  61.2 1016.4 -9.9 -9.999 -99.9 -99.99 -9.99
2020/01/29 06:00 PST    2.17   2.54 -999 -999 -999 -99.9  61.2 1016.3 -9.9 -9.999 -99.9 -99.99 -9.99
2020/01/29 06:06 PST    2.19   2.65 -999 -999 -999 -99.9  61.0 1016.4 -9.9 -9.999 -99.9 -99.99 -9.99
2020/01/29 06:12 PST    2.21   2.69 -999 -999 -999 -99.9  61.0 1016.5 -9.9 -9.999 -99.9 -99.99 -9.99
2020/01/29 06:18 PST    2.24   2.73 -999 -999 -999 -99.9  61.0 1016.6 -9.9 -9.999 -99.9 -99.99 -9.99
2020/01/29 06:24 PST    2.26   2.75 -999 -999 -999 -99.9  61.0 1016.6 -9.9 -9.999 -99.9 -99.99 -9.99
2020/01/29 06:30 PST    2.30   2.77 -999 -999 -999 -99.9  61.0 1016.6 -9.9 -9.999 -99.9 -99.99 -9.99
2020/01/29 06:36 PST    2.33   2.80 -999 -999 -999 -99.9  61.0 1016.6 -9.9 -9.999 -99.9 -99.99 -9.99
2020/01/29 06:42 PST    2.36   2.82 -999 -999 -999 -99.9  61.0 1016.7 -9.9 -9.999 -99.9 -99.99 -9.99
2020/01/29 06:48 PST    2.40   2.88 -999 -999 -999 -99.9  61.0 1016.7 -9.9 -9.999 -99.9 -99.99 -9.99
2020/01/29 06:54 PST    2.44   2.85 -999 -999 -999 -99.9  61.0 1016.7 -9.9 -9.999 -99.9 -99.99 -9.99
2020/01/29 07:00 PST    2.49   2.95 -999 -999 -999 -99.9  61.0 1016.8 -9.9 -9.999 -99.9 -99.99 -9.99
2020/01/29 07:06 PST    2.53   3.01 -999 -999 -999 -99.9  61.0 1016.8 -9.9 -9.999 -99.9 -99.99 -9.99
2020/01/29 07:12 PST    2.58   3.09 -999 -999 -999 -99.9  61.0 1016.8 -9.9 -9.999 -99.9 -99.99 -9.99
2020/01/29 07:18 PST    2.63   3.15 -999 -999 -999 -99.9  61.0 1016.9 -9.9 -9.999 -99.9 -99.99 -9.99
2020/01/29 07:24 PST    2.68   3.21 -999 -999 -999 -99.9  61.0 1017.0 -9.9 -9.999 -99.9 -99.99 -9.99
2020/01/29 07:30 PST    2.73   3.20 -999 -999 -999 -99.9  61.0 1017.1 -9.9 -9.999 -99.9 -99.99 -9.99
2020/01/29 07:36 PST    2.79   3.31 -999 -999 -999 -99.9  61.0 1017.1 -9.9 -9.999 -99.9 -99.99 -9.99
2020/01/29 07:42 PST    2.84   3.36 -999 -999 -999 -99.9  61.0 1017.0 -9.9 -9.999 -99.9 -99.99 -9.99
2020/01/29 07:48 PST    2.90   3.37 -999 -999 -999 -99.9  61.0 1017.1 -9.9 -9.999 -99.9 -99.99 -9.99
2020/01/29 07:54 PST    2.96   3.36 -999 -999 -999 -99.9  61.0 1017.1 -9.9 -9.999 -99.9 -99.99 -9.99
2020/01/29 08:00 PST    3.01   3.45 -999 -999 -999 -99.9  61.0 1017.1 -9.9 -9.999 -99.9 -99.99 -9.99
2020/01/29 08:06 PST    3.07   3.47 -999 -999 -999 -99.9  61.0 1017.1 -9.9 -9.999 -99.9 -99.99 -9.99
2020/01/29 08:12 PST    3.13   3.58 -999 -999 -999 -99.9  61.0 1017.1 -9.9 -9.999 -99.9 -99.99 -9.99
2020/01/29 08:18 PST    3.19   3.67 -999 -999 -999 -99.9  61.0 1017.2 -9.9 -9.999 -99.9 -99.99 -9.99
2020/01/29 08:24 PST    3.25   3.75 -999 -999 -999 -99.9  61.0 1017.2 -9.9 -9.999 -99.9 -99.99 -9.99
2020/01/29 08:30 PST    3.32   3.78 -999 -999 -999 -99.9  61.0 1017.2 -9.9 -9.999 -99.9 -99.99 -9.99
2020/01/29 08:36 PST    3.38   3.85 -999 -999 -999 -99.9  61.0 1017.3 -9.9 -9.999 -99.9 -99.99 -9.99
2020/01/29 08:42 PST    3.44   3.89 -999 -999 -999 -99.9  61.0 1017.5 -9.9 -9.999 -99.9 -99.99 -9.99
2020/01/29 08:48 PST    3.50   3.94 -999 -999 -999 -99.9  61.0 1017.5 -9.9 -9.999 -99.9 -99.99 -9.99
2020/01/29 08:54 PST    3.55   3.97 -999 -999 -999 -99.9  61.0 1017.6 -9.9 -9.999 -99.9 -99.99 -9.99
2020/01/29 09:00 PST    3.61   4.04 -999 -999 -999 -99.9  61.0 1017.6 -9.9 -9.999 -99.9 -99.99 -9.99
2020/01/29 09:06 PST    3.67   4.11 -999 -999 -999 -99.9  61.0 1017.6 -9.9 -9.999 -99.9 -99.99 -9.99
2020/01/29 09:12 PST    3.73   4.18 -999 -999 -999 -99.9  61.0 1017.6 -9.9 -9.999 -99.9 -99.99 -9.99
2020/01/29 09:18 PST    3.78   4.23 -999 -999 -999 -99.9  61.0 1017.7 -9.9 -9.999 -99.9 -99.99 -9.99
2020/01/29 09:24 PST    3.83   4.30 -999 -999 -999 -99.9  61.0 1017.8 -9.9 -9.999 -99.9 -99.99 -9.99
2020/01/29 09:30 PST    3.88   4.35 -999 -999 -999 -99.9  61.0 1017.8 -9.9 -9.999 -99.9 -99.99 -9.99
2020/01/29 09:36 PST    3.93   4.40 -999 -999 -999 -99.9  61.0 1018.1 -9.9 -9.999 -99.9 -99.99 -9.99
2020/01/29 09:42 PST    3.98   4.41 -999 -999 -999 -99.9  61.0 1018.1 -9.9 -9.999 -99.9 -99.99 -9.99
2020/01/29 09:48 PST    4.03   4.45 -999 -999 -999 -99.9  61.0 1018.1 -9.9 -9.999 -99.9 -99.99 -9.99
2020/01/29 09:54 PST    4.07   4.47 -999 -999 -999 -99.9  61.0 1018.2 -9.9 -9.999 -99.9 -99.99 -9.99
2020/01/29 10:00 PST    4.11   4.52 -999 -999 -999 -99.9  61.0 1018.3 -9.9 -9.999 -99.9 -99.99 -9.99
2020/01/29 10:06 PST    4.15   4.56 -999 -999 -999 -99.9  61.0 1018.3 -9.9 -9.999 -99.9 -99.99 -9.99
2020/01/29 10:12 PST    4.18   4.67 -999 -999 -999 -99.9  61.0 1018.2 -9.9 -9.999 -99.9 -99.99 -9.99
2020/01/29 10:18 PST    4.21   4.67 -999 -999 -999 -99.9  61.0 1018.2 -9.9 -9.999 -99.9 -99.99 -9.99
2020/01/29 10:24 PST    4.24   4.69 -999 -999 -999 -99.9  61.0 1018.1 -9.9 -9.999 -99.9 -99.99 -9.99
2020/01/29 10:30 PST    4.27   4.71 -999 -999 -999 -99.9  61.0 1018.0 -9.9 -9.999 -99.9 -99.99 -9.99
2020/01/29 10:36 PST    4.29   4.74 -999 -999 -999 -99.9  61.0 1018.0 -9.9 -9.999 -99.9 -99.99 -9.99
2020/01/29 10:42 PST    4.31   4.74 -999 -999 -999 -99.9  61.0 1018.0 -9.9 -9.999 -99.9 -99.99 -9.99
2020/01/29 10:48 PST    4.33   4.74 -999 -999 -999 -99.9  61.0 1017.9 -9.9 -9.999 -99.9 -99.99 -9.99
2020/01/29 10:54 PST    4.34   4.72 -999 -999 -999 -99.9  61.0 1017.9 -9.9 -9.999 -99.9 -99.99 -9.99
2020/01/29 11:00 PST    4.35   4.74 -999 -999 -999 -99.9  61.0 1017.8 -9.9 -9.999 -99.9 -99.99 -9.99
2020/01/29 11:06 PST    4.36   4.77 -999 -999 -999 -99.9  61.0 1017.8 -9.9 -9.999 -99.9 -99.99 -9.99
2020/01/29 11:12 PST    4.36   4.75 -999 -999 -999 -99.9  61.0 1017.7 -9.9 -9.999 -99.9 -99.99 -9.99
2020/01/29 11:18 PST    4.36   4.73 -999 -999 -999 -99.9  61.0 1017.6 -9.9 -9.999 -99.9 -99.99 -9.99
2020/01/29 11:24 PST    4.36   4.72 -999 -999 -999 -99.9  61.0 1017.4 -9.9 -9.999 -99.9 -99.99 -9.99
2020/01/29 11:30 PST    4.35   4.73 -999 -999 -999 -99.9  61.0 1017.3 -9.9 -9.999 -99.9 -99.99 -9.99
2020/01/29 11:36 PST    4.34   4.77 -999 -999 -999 -99.9  61.0 1017.2 -9.9 -9.999 -99.9 -99.99 -9.99
2020/01/29 11:42 PST    4.32   4.75 -999 -999 -999 -99.9  61.0 1016.9 -9.9 -9.999 -99.9 -99.99 -9.99
2020/01/29 11:48 PST    4.30   4.69 -999 -999 -999 -99.9  61.0 1016.8 -9.9 -9.999 -99.9 -99.99 -9.99
2020/01/29 11:54 PST    4.28   4.66 -999 -999 -999 -99.9  61.0 1016.5 -9.9 -9.999 -99.9 -99.99 -9.99
2020/01/29 12:00 PST    4.25   4.62 -999 -999 -999 -99.9  61.0 1016.4 -9.9 -9.999 -99.9 -99.99 -9.99
2020/01/29 12:06 PST    4.22   4.59 -999 -999 -999 -99.9  61.0 1016.3 -9.9 -9.999 -99.9 -99.99 -9.99
2020/01/29 12:12 PST    4.19   4.56 -999 -999 -999 -99.9  61.0 1016.2 -9.9 -9.999 -99.9 -99.99 -9.99
2020/01/29 12:18 PST    4.15   4.50 -999 -999 -999 -99.9  61.0 1016.1 -9.9 -9.999 -99.9 -99.99 -9.99
2020/01/29 12:24 PST    4.11   4.43 -999 -999 -999 -99.9  61.2 1016.0 -9.9 -9.999 -99.9 -99.99 -9.99
2020/01/29 12:30 PST    4.07 -99.99 -999 -999 -999 -99.9 -99.9 -999.9 -9.9 -9.999 -99.9 -99.99 -9.99
2020/01/29 12:36 PST    4.02 -99.99 -999 -999 -999 -99.9 -99.9 -999.9 -9.9 -9.999 -99.9 -99.99 -9.99
2020/01/29 12:42 PST    3.97 -99.99 -999 -999 -999 -99.9 -99.9 -999.9 -9.9 -9.999 -99.9 -99.99 -9.99
2020/01/29 12:48 PST    3.92 -99.99 -999 -999 -999 -99.9 -99.9 -999.9 -9.9 -9.999 -99.9 -99.99 -9.99
2020/01/29 12:54 PST    3.86 -99.99 -999 -999 -999 -99.9 -99.9 -999.9 -9.9 -9.999 -99.9 -99.99 -9.99
2020/01/29 13:00 PST    3.80 -99.99 -999 -999 -999 -99.9 -99.9 -999.9 -9.9 -9.999 -99.9 -99.99 -9.99
2020/01/29 13:06 PST    3.74 -99.99 -999 -999 -999 -99.9 -99.9 -999.9 -9.9 -9.999 -99.9 -99.99 -9.99
2020/01/29 13:12 PST    3.67 -99.99 -999 -999 -999 -99.9 -99.9 -999.9 -9.9 -9.999 -99.9 -99.99 -9.99
2020/01/29 13:18 PST    3.60 -99.99 -999 -999 -999 -99.9 -99.9 -999.9 -9.9 -9.999 -99.9 -99.99 -9.99
2020/01/29 13:24 PST    3.53 -99.99 -999 -999 -999 -99.9 -99.9 -999.9 -9.9 -9.999 -99.9 -99.99 -9.99
2020/01/29 13:30 PST    3.46 -99.99 -999 -999 -999 -99.9 -99.9 -999.9 -9.9 -9.999 -99.9 -99.99 -9.99
2020/01/29 13:36 PST    3.39 -99.99 -999 -999 -999 -99.9 -99.9 -999.9 -9.9 -9.999 -99.9 -99.99 -9.99
2020/01/29 13:42 PST    3.31 -99.99 -999 -999 -999 -99.9 -99.9 -999.9 -9.9 -9.999 -99.9 -99.99 -9.99
2020/01/29 13:48 PST    3.23 -99.99 -999 -999 -999 -99.9 -99.9 -999.9 -9.9 -9.999 -99.9 -99.99 -9.99
2020/01/29 13:54 PST    3.15 -99.99 -999 -999 -999 -99.9 -99.9 -999.9 -9.9 -9.999 -99.9 -99.99 -9.99
2020/01/29 14:00 PST    3.07 -99.99 -999 -999 -999 -99.9 -99.9 -999.9 -9.9 -9.999 -99.9 -99.99 -9.99
2020/01/29 14:06 PST    2.99 -99.99 -999 -999 -999 -99.9 -99.9 -999.9 -9.9 -9.999 -99.9 -99.99 -9.99
2020/01/29 14:12 PST    2.90 -99.99 -999 -999 -999 -99.9 -99.9 -999.9 -9.9 -9.999 -99.9 -99.99 -9.99
2020/01/29 14:18 PST    2.82 -99.99 -999 -999 -999 -99.9 -99.9 -999.9 -9.9 -9.999 -99.9 -99.99 -9.99
2020/01/29 14:24 PST    2.73 -99.99 -999 -999 -999 -99.9 -99.9 -999.9 -9.9 -9.999 -99.9 -99.99 -9.99
2020/01/29 14:30 PST    2.64 -99.99 -999 -999 -999 -99.9 -99.9 -999.9 -9.9 -9.999 -99.9 -99.99 -9.99
2020/01/29 14:36 PST    2.56 -99.99 -999 -999 -999 -99.9 -99.9 -999.9 -9.9 -9.999 -99.9 -99.99 -9.99
2020/01/29 14:42 PST    2.47 -99.99 -999 -999 -999 -99.9 -99.9 -999.9 -9.9 -9.999 -99.9 -99.99 -9.99
2020/01/29 14:48 PST    2.38 -99.99 -999 -999 -999 -99.9 -99.9 -999.9 -9.9 -9.999 -99.9 -99.99 -9.99
2020/01/29 14:54 PST    2.30 -99.99 -999 -999 -999 -99.9 -99.9 -999.9 -9.9 -9.999 -99.9 -99.99 -9.99
2020/01/29 15:00 PST    2.21 -99.99 -999 -999 -999 -99.9 -99.9 -999.9 -9.9 -9.999 -99.9 -99.99 -9.99
2020/01/29 15:06 PST    2.12 -99.99 -999 -999 -999 -99.9 -99.9 -999.9 -9.9 -9.999 -99.9 -99.99 -9.99
2020/01/29 15:12 PST    2.04 -99.99 -999 -999 -999 -99.9 -99.9 -999.9 -9.9 -9.999 -99.9 -99.99 -9.99
2020/01/29 15:18 PST    1.95 -99.99 -999 -999 -999 -99.9 -99.9 -999.9 -9.9 -9.999 -99.9 -99.99 -9.99
2020/01/29 15:24 PST    1.87 -99.99 -999 -999 -999 -99.9 -99.9 -999.9 -9.9 -9.999 -99.9 -99.99 -9.99
2020/01/29 15:30 PST    1.79 -99.99 -999 -999 -999 -99.9 -99.9 -999.9 -9.9 -9.999 -99.9 -99.99 -9.99
2020/01/29 15:36 PST    1.71 -99.99 -999 -999 -999 -99.9 -99.9 -999.9 -9.9 -9.999 -99.9 -99.99 -9.99
2020/01/29 15:42 PST    1.63 -99.99 -999 -999 -999 -99.9 -99.9 -999.9 -9.9 -9.999 -99.9 -99.99 -9.99
2020/01/29 15:48 PST    1.55 -99.99 -999 -999 -999 -99.9 -99.9 -999.9 -9.9 -9.999 -99.9 -99.99 -9.99
2020/01/29 15:54 PST    1.47 -99.99 -999 -999 -999 -99.9 -99.9 -999.9 -9.9 -9.999 -99.9 -99.99 -9.99
2020/01/29 16:00 PST    1.40 -99.99 -999 -999 -999 -99.9 -99.9 -999.9 -9.9 -9.999 -99.9 -99.99 -9.99
2020/01/29 16:06 PST    1.33 -99.99 -999 -999 -999 -99.9 -99.9 -999.9 -9.9 -9.999 -99.9 -99.99 -9.99
2020/01/29 16:12 PST    1.26 -99.99 -999 -999 -999 -99.9 -99.9 -999.9 -9.9 -9.999 -99.9 -99.99 -9.99
2020/01/29 16:18 PST    1.19 -99.99 -999 -999 -999 -99.9 -99.9 -999.9 -9.9 -9.999 -99.9 -99.99 -9.99
2020/01/29 16:24 PST    1.13 -99.99 -999 -999 -999 -99.9 -99.9 -999.9 -9.9 -9.999 -99.9 -99.99 -9.99
2020/01/29 16:30 PST    1.07 -99.99 -999 -999 -999 -99.9 -99.9 -999.9 -9.9 -9.999 -99.9 -99.99 -9.99
2020/01/29 16:36 PST    1.01 -99.99 -999 -999 -999 -99.9 -99.9 -999.9 -9.9 -9.999 -99.9 -99.99 -9.99
2020/01/29 16:42 PST    0.96 -99.99 -999 -999 -999 -99.9 -99.9 -999.9 -9.9 -9.999 -99.9 -99.99 -9.99
2020/01/29 16:48 PST    0.91 -99.99 -999 -999 -999 -99.9 -99.9 -999.9 -9.9 -9.999 -99.9 -99.99 -9.99
2020/01/29 16:54 PST    0.86 -99.99 -999 -999 -999 -99.9 -99.9 -999.9 -9.9 -9.999 -99.9 -99.99 -9.99
2020/01/29 17:00 PST    0.82 -99.99 -999 -999 -999 -99.9 -99.9 -999.9 -9.9 -9.999 -99.9 -99.99 -9.99
2020/01/29 17:06 PST    0.78 -99.99 -999 -999 -999 -99.9 -99.9 -999.9 -9.9 -9.999 -99.9 -99.99 -9.99
2020/01/29 17:12 PST    0.74 -99.99 -999 -999 -999 -99.9 -99.9 -999.9 -9.9 -9.999 -99.9 -99.99 -9.99
2020/01/29 17:18 PST    0.71 -99.99 -999 -999 -999 -99.9 -99.9 -999.9 -9.9 -9.999 -99.9 -99.99 -9.99
2020/01/29 17:24 PST    0.68 -99.99 -999 -999 -999 -99.9 -99.9 -999.9 -9.9 -9.999 -99.9 -99.99 -9.99
2020/01/29 17:30 PST    0.65 -99.99 -999 -999 -999 -99.9 -99.9 -999.9 -9.9 -9.999 -99.9 -99.99 -9.99
2020/01/29 17:36 PST    0.63 -99.99 -999 -999 -999 -99.9 -99.9 -999.9 -9.9 -9.999 -99.9 -99.99 -9.99
2020/01/29 17:42 PST    0.61 -99.99 -999 -999 -999 -99.9 -99.9 -999.9 -9.9 -9.999 -99.9 -99.99 -9.99
2020/01/29 17:48 PST    0.60 -99.99 -999 -999 -999 -99.9 -99.9 -999.9 -9.9 -9.999 -99.9 -99.99 -9.99
2020/01/29 17:54 PST    0.59 -99.99 -999 -999 -999 -99.9 -99.9 -999.9 -9.9 -9.999 -99.9 -99.99 -9.99
2020/01/29 18:00 PST    0.59 -99.99 -999 -999 -999 -99.9 -99.9 -999.9 -9.9 -9.999 -99.9 -99.99 -9.99
2020/01/29 18:06 PST    0.58 -99.99 -999 -999 -999 -99.9 -99.9 -999.9 -9.9 -9.999 -99.9 -99.99 -9.99
2020/01/29 18:12 PST    0.59 -99.99 -999 -999 -999 -99.9 -99.9 -999.9 -9.9 -9.999 -99.9 -99.99 -9.99
2020/01/29 18:18 PST    0.59 -99.99 -999 -999 -999 -99.9 -99.9 -999.9 -9.9 -9.999 -99.9 -99.99 -9.99
2020/01/29 18:24 PST    0.60 -99.99 -999 -999 -999 -99.9 -99.9 -999.9 -9.9 -9.999 -99.9 -99.99 -9.99
2020/01/29 18:30 PST    0.62 -99.99 -999 -999 -999 -99.9 -99.9 -999.9 -9.9 -9.999 -99.9 -99.99 -9.99
2020/01/29 18:36 PST    0.64 -99.99 -999 -999 -999 -99.9 -99.9 -999.9 -9.9 -9.999 -99.9 -99.99 -9.99
2020/01/29 18:42 PST    0.66 -99.99 -999 -999 -999 -99.9 -99.9 -999.9 -9.9 -9.999 -99.9 -99.99 -9.99